עמוד ראשי
METAR-TAF:

METAR-TAF

שדות תעופה :

Stornoway, סקוטלנד

קו רוחב: 58-13N, קו אורך: 006-19W, גובה: 9מטר

תצפית מזג אוויר נוכחית

הדו"ח נערך לפני 31דקות, בשעה 00:50 UTC
רוח 1קשר מכיוון צפון-מערב
טמפרטורת 11 צלסיוס
לחות 94%
לחץ 1014 hPa
ראות 10 קילומטר או יותר

METAR: EGPO 210050Z AUTO 31001KT 9999 OVC046/// 11/10 Q1014

זמן: 02:21 (01:21 UTC)

תחזית

הדו"ח נערך לפני 2 שעות ו 24דקות, בשעה 22:57 UTC
תחזית בתוקף מ 21 ב 00 UTC עד 21 ב 09 UTC
רוח 3קשר עם כיוונים משתנים
ראות 10 קילומטר או יותר
עננים פזורים בגובה 4000רגל
יעשה מ
21 ב 07 UTC עד 21 ב 09 UTC
רוח 10קשר מכיוון צפון-מזרח

TAF: EGPO 202257Z 2100/2109 VRB03KT 9999 SCT040 BECMG 2107/2109 04010KT

תצפיות ותחזיות מזג אוויר לגבי יותר מ- 4,000 שדות תעופה ברחבי העולם. דוחות METAR ו- TAF.

התחנות הזמינות מסומנות בנקודות צהובות ואדומות על גבי המפה.

העבר את העכבר לנקודה הצבעונית על מנת לראות את שם התחנה.

לאחר מכן, לחץ כדי לראות את תוכן ואת תחזיות מזג האוויר.

כדי לשנות את המפה: לחץ על הכפתורים הירוקים עם הפלוס השחור כדי להתקרב; על הכפתור הירוק עם המקף כדי להתרחק; או בחיצים הירוקים למפות סמוכות.


METAR-TAF: